Berrien Springs, MI

4:57 AM EDT on June 30, 2015 (GMT -0400)
Berrien Springs Public Schools | | Change Station
CLOSE
Current Station
Personal Weather Station
Location: Oronoko Charter Township, MI
Elevation: 669 ft
Nearby Weather Stations

Elev 669 ft 41.95 °N, 86.35 °W | Updated 12 seconds ago

Overcast
Overcast
62.2 °F
Feels Like 62.2 °F
N
1.1
Wind Variable Wind from SE
Gusts 2.5 mph

Today
High -- | Low -- °F
--% Chance of Precip.
Yesterday
High -- | Low -- °F
Precip. -- in
6:13 AM 9:24 PM
Waxing Gibbous, 96% visible
Pressure 29.77 in
Visibility 6.0 miles
Clouds Mostly Cloudy 800 ft
Mostly Cloudy 1700 ft
Dew Point 62 °F
Humidity 98%
Rainfall in
Snow Depth Not available.
UV 0 out of 12
Pollen .50 out of 12
Air Quality Not available.
Flu Activity Sporadic
METAR KBEH 300853Z AUTO 15004KT 6SM BR BKN008 BKN017 16/15 A2977 RMK AO2 CIG 005V011 SLP080 T01610150 58008

More Conditions Fewer Conditions

Pressure 29.77 in
Visibility 6.0 miles
Clouds Mostly Cloudy 800 ft
Mostly Cloudy 1700 ft
Dew Point 62 °F
Humidity 98%
Rainfall in
Snow Depth Not available.
UV 0 out of 12
Pollen .50 out of 12
Air Quality Not available.
Flu Activity Sporadic
METAR KBEH 300853Z AUTO 15004KT 6SM BR BKN008 BKN017 16/15 A2977 RMK AO2 CIG 005V011 SLP080 T01610150 58008

More Conditions Fewer Conditions

10-Day Weather Forecast

×

Almanac

Astronomy

Jun. 30, 2015 Rise Set
Actual Time
Civil Twilight
Nautical Twilight
Astronomical Twilight
Moon
Length of Visible Light
Length of Day
Tomorrow will be .
, % of the Moon is Illuminated

Today's Extremes

State Highs State Lows

Community

WunderPhotos

Upload Photos

1,833,976 photos uploaded!

WunderBlogs® & News

Nearby

Air Quality

  Air Quality AQ Index Pollutant
Not available.

Snow Depth

Station Depth Elevation

Earthquake Activity

City Distance Mag. Time & Date
Minimum magnitude displayed is 2.5.

Coastal Water Temperatures

Place Temperature

Stations

Nearby Weather Stations

Station Location Temp. Windchill Dew Point Humidity Wind Precip. Elev Updated Type